createdAt,value
2022-08-20T00:01:49.578Z,862.37
2022-08-20T00:02:49.430Z,862.38
2022-08-20T00:04:42.781Z,862.28
2022-08-20T00:05:42.764Z,862.15
2022-08-20T00:07:36.179Z,862.26
2022-08-20T00:08:36.101Z,862.28
2022-08-20T00:10:29.454Z,862.25
2022-08-20T00:11:29.437Z,862.26
2022-08-20T00:13:22.856Z,862.15
2022-08-20T00:14:22.777Z,862.12
2022-08-20T00:16:16.130Z,862.13
2022-08-20T00:17:16.114Z,862.04
2022-08-20T00:19:09.532Z,862.02
2022-08-20T00:20:09.454Z,862.03
2022-08-20T00:22:02.807Z,862.17
2022-08-20T00:23:05.260Z,862.25
2022-08-20T00:24:56.244Z,862.17
2022-08-20T00:25:56.132Z,862.17
2022-08-20T00:27:49.504Z,862.18
2022-08-20T00:28:49.473Z,862.20
2022-08-20T00:30:42.931Z,862.15
2022-08-20T00:31:42.816Z,862.15
2022-08-20T00:33:36.166Z,862.18
2022-08-20T00:34:36.166Z,862.22
2022-08-20T00:36:32.677Z,862.15
2022-08-20T00:37:29.498Z,862.15
2022-08-20T00:39:22.854Z,862.17
2022-08-20T00:40:23.290Z,862.21
2022-08-20T00:42:16.317Z,862.19
2022-08-20T00:43:16.179Z,862.20
2022-08-20T00:45:09.538Z,862.20
2022-08-20T00:46:09.522Z,862.23
2022-08-20T00:48:02.988Z,862.26
2022-08-20T00:49:02.858Z,862.21
2022-08-20T00:50:56.215Z,862.18
2022-08-20T00:51:56.199Z,862.21
2022-08-20T00:53:49.659Z,862.18
2022-08-20T00:54:49.546Z,862.12
2022-08-20T00:56:42.898Z,862.12
2022-08-20T00:57:56.763Z,862.14
2022-08-20T00:59:37.374Z,862.18
2022-08-20T01:00:37.219Z,862.15
2022-08-20T01:02:30.570Z,862.18
2022-08-20T01:03:30.556Z,862.16
2022-08-20T01:05:29.613Z,862.15
2022-08-20T01:06:24.671Z,862.11
2022-08-20T01:08:17.256Z,862.12
2022-08-20T01:09:17.243Z,862.10
2022-08-20T01:11:10.669Z,862.10
2022-08-20T01:12:11.355Z,862.06
2022-08-20T01:14:03.943Z,862.10
2022-08-20T01:15:03.930Z,862.09
2022-08-20T01:16:57.347Z,862.08
2022-08-20T01:17:57.444Z,862.13
2022-08-20T01:19:50.618Z,862.07
2022-08-20T01:20:50.606Z,862.07
2022-08-20T01:22:45.065Z,862.14
2022-08-20T01:23:44.943Z,862.14
2022-08-20T01:25:38.297Z,862.13
2022-08-20T01:26:39.057Z,862.14
2022-08-20T01:28:31.701Z,862.17
2022-08-20T01:29:31.622Z,862.10
2022-08-20T01:31:24.983Z,862.04
2022-08-20T01:32:24.967Z,861.99
2022-08-20T01:34:18.423Z,861.95
2022-08-20T01:35:18.311Z,861.95
2022-08-20T01:37:11.659Z,861.98
2022-08-20T01:38:11.648Z,862.00
2022-08-20T01:40:05.102Z,862.02
2022-08-20T01:41:04.984Z,862.05
2022-08-20T01:42:59.212Z,862.03
2022-08-20T01:43:58.681Z,861.97
2022-08-20T01:45:51.739Z,861.94
2022-08-20T01:46:51.667Z,861.88
2022-08-20T01:48:45.035Z,861.96
2022-08-20T01:49:45.022Z,861.95
2022-08-20T01:51:38.469Z,861.93
2022-08-20T01:52:38.360Z,861.88
2022-08-20T01:54:31.712Z,861.90
2022-08-20T01:55:31.697Z,861.84
2022-08-20T01:57:25.115Z,861.84
2022-08-20T01:58:25.037Z,861.78
2022-08-20T02:00:19.776Z,861.75
2022-08-20T02:01:18.431Z,861.76
2022-08-20T02:03:11.786Z,861.87
2022-08-20T02:04:15.355Z,861.87
2022-08-20T02:06:06.058Z,861.87
2022-08-20T02:07:06.047Z,861.86
2022-08-20T02:08:59.496Z,861.74
2022-08-20T02:09:59.383Z,861.71
2022-08-20T02:11:52.735Z,861.79
2022-08-20T02:12:53.001Z,861.78
2022-08-20T02:14:46.195Z,861.79
2022-08-20T02:15:46.059Z,861.78
2022-08-20T02:17:39.410Z,861.80
2022-08-20T02:18:39.396Z,861.73
2022-08-20T02:20:32.847Z,861.66
2022-08-20T02:21:32.736Z,861.69
2022-08-20T02:23:26.089Z,861.63
2022-08-20T02:24:26.078Z,861.67
2022-08-20T02:26:19.487Z,861.75
2022-08-20T02:27:19.411Z,861.76
2022-08-20T02:29:13.760Z,861.67
2022-08-20T02:30:20.000Z,861.66
2022-08-20T02:32:24.227Z,861.51
2022-08-20T02:33:07.177Z,861.53
2022-08-20T02:35:00.438Z,861.54
2022-08-20T02:36:00.425Z,861.47
2022-08-20T02:37:53.841Z,861.45
2022-08-20T02:38:53.760Z,861.38
2022-08-20T02:40:48.113Z,861.27
2022-08-20T02:41:48.096Z,861.22
2022-08-20T02:43:41.576Z,861.18
2022-08-20T02:44:41.440Z,861.24
2022-08-20T02:46:34.795Z,861.21
2022-08-20T02:47:34.784Z,861.14
2022-08-20T02:49:28.286Z,861.21
2022-08-20T02:50:28.128Z,861.31
2022-08-20T02:52:21.008Z,861.32
2022-08-20T02:53:20.993Z,861.33
2022-08-20T02:55:18.801Z,861.33
2022-08-20T02:56:14.330Z,861.37
2022-08-20T02:58:07.687Z,861.34
2022-08-20T02:59:07.673Z,861.36
2022-08-20T03:01:01.113Z,861.39
2022-08-20T03:02:01.342Z,861.41
2022-08-20T03:03:54.362Z,861.34
2022-08-20T03:04:54.346Z,861.34
2022-08-20T03:06:47.816Z,861.39
2022-08-20T03:07:47.686Z,861.43
2022-08-20T03:09:41.037Z,861.49
2022-08-20T03:10:41.025Z,861.50
2022-08-20T03:12:34.529Z,861.51
2022-08-20T03:13:34.364Z,861.48
2022-08-20T03:15:27.714Z,861.43
2022-08-20T03:16:27.698Z,861.40
2022-08-20T03:18:21.145Z,861.49
2022-08-20T03:19:21.036Z,861.50
2022-08-20T03:21:14.690Z,861.51
2022-08-20T03:22:14.382Z,861.51
2022-08-20T03:24:07.876Z,861.51
2022-08-20T03:25:07.719Z,861.45
2022-08-20T03:27:01.069Z,861.50
2022-08-20T03:28:01.300Z,861.53
2022-08-20T03:29:54.528Z,861.48
2022-08-20T03:30:54.393Z,861.40
2022-08-20T03:32:48.741Z,861.36
2022-08-20T03:33:52.954Z,861.38
2022-08-20T03:35:42.141Z,861.42
2022-08-20T03:36:42.068Z,861.41
2022-08-20T03:38:35.426Z,861.38
2022-08-20T03:39:35.456Z,861.39
2022-08-20T03:41:28.868Z,861.29
2022-08-20T03:42:28.749Z,861.23
2022-08-20T03:44:23.104Z,861.24
2022-08-20T03:45:23.089Z,861.20
2022-08-20T03:47:16.508Z,861.26
2022-08-20T03:48:16.427Z,861.29
2022-08-20T03:50:09.779Z,861.22
2022-08-20T03:51:09.767Z,861.21
2022-08-20T03:53:03.227Z,861.19
2022-08-20T03:54:03.114Z,861.23
2022-08-20T03:55:59.299Z,861.24
2022-08-20T03:56:56.456Z,861.22
2022-08-20T03:58:49.912Z,861.27
2022-08-20T03:59:54.855Z,861.31
2022-08-20T04:01:46.353Z,861.42
2022-08-20T04:02:43.130Z,861.42
2022-08-20T04:04:36.551Z,861.41
2022-08-20T04:05:36.471Z,861.41
2022-08-20T04:07:30.585Z,861.35
2022-08-20T04:08:29.812Z,861.40
2022-08-20T04:10:23.928Z,861.33
2022-08-20T04:11:23.150Z,861.36
2022-08-20T04:13:16.511Z,861.35
2022-08-20T04:14:18.465Z,861.35
2022-08-20T04:16:11.252Z,861.33
2022-08-20T04:17:09.834Z,861.29
2022-08-20T04:19:03.194Z,861.27
2022-08-20T04:20:03.179Z,861.26
2022-08-20T04:21:56.634Z,861.24
2022-08-20T04:22:59.185Z,861.19
2022-08-20T04:24:49.881Z,861.16
2022-08-20T04:25:49.866Z,861.12
2022-08-20T04:27:43.342Z,861.11
2022-08-20T04:28:43.204Z,861.10
2022-08-20T04:30:36.558Z,861.09
2022-08-20T04:31:36.546Z,861.10
2022-08-20T04:33:34.002Z,861.09
2022-08-20T04:34:29.883Z,861.11
2022-08-20T04:36:23.240Z,861.12
2022-08-20T04:37:23.224Z,861.11
2022-08-20T04:39:16.677Z,861.04
2022-08-20T04:40:16.562Z,861.05
2022-08-20T04:42:09.916Z,860.98
2022-08-20T04:43:09.903Z,861.02
2022-08-20T04:45:03.417Z,860.97
2022-08-20T04:46:03.242Z,860.98
2022-08-20T04:47:56.787Z,860.95
2022-08-20T04:48:56.593Z,860.93
2022-08-20T04:50:50.065Z,860.96
2022-08-20T04:51:49.935Z,860.91
2022-08-20T04:53:43.286Z,860.88
2022-08-20T04:54:43.273Z,860.89
2022-08-20T04:56:36.770Z,860.88
2022-08-20T04:57:36.610Z,860.87
2022-08-20T04:59:29.960Z,860.83
2022-08-20T05:00:29.949Z,860.75
2022-08-20T05:02:23.448Z,860.71
2022-08-20T05:03:23.288Z,860.68
2022-08-20T05:05:17.640Z,860.71
2022-08-20T05:06:17.623Z,860.71
2022-08-20T05:08:19.869Z,860.61
2022-08-20T05:09:11.964Z,860.63
2022-08-20T05:11:32.619Z,860.60
2022-08-20T05:12:06.317Z,860.61
2022-08-20T05:13:59.736Z,860.53
2022-08-20T05:14:59.654Z,860.52
2022-08-20T05:16:53.009Z,860.46
2022-08-20T05:17:52.995Z,860.44
2022-08-20T05:19:46.419Z,860.44
2022-08-20T05:20:46.340Z,860.44
2022-08-20T05:22:39.692Z,860.45
2022-08-20T05:23:39.677Z,860.42
2022-08-20T05:25:34.090Z,860.41
2022-08-20T05:26:34.017Z,860.39
2022-08-20T05:28:27.367Z,860.37
2022-08-20T05:29:27.353Z,860.37
2022-08-20T05:31:20.809Z,860.33
2022-08-20T05:32:20.700Z,860.32
2022-08-20T05:34:14.054Z,860.35
2022-08-20T05:35:14.031Z,860.35
2022-08-20T05:37:08.515Z,860.29
2022-08-20T05:38:08.378Z,860.34
2022-08-20T05:40:01.763Z,860.31
2022-08-20T05:41:01.717Z,860.27
2022-08-20T05:42:55.141Z,860.25
2022-08-20T05:43:55.057Z,860.25
2022-08-20T05:45:48.410Z,860.20
2022-08-20T05:46:48.392Z,860.20
2022-08-20T05:48:41.890Z,860.18
2022-08-20T05:49:41.732Z,860.12
2022-08-20T05:51:35.085Z,860.15
2022-08-20T05:52:35.068Z,860.19
2022-08-20T05:54:28.487Z,860.21
2022-08-20T05:55:28.405Z,860.19
2022-08-20T05:57:21.769Z,860.09
2022-08-20T05:58:21.754Z,860.13
2022-08-20T06:00:15.178Z,860.03
2022-08-20T06:01:15.159Z,860.07
2022-08-20T06:03:08.448Z,859.97
2022-08-20T06:04:08.433Z,859.98
2022-08-20T06:06:01.848Z,860.01
2022-08-20T06:07:01.769Z,860.04
2022-08-20T06:08:55.117Z,859.99
2022-08-20T06:09:55.106Z,859.96
2022-08-20T06:11:48.526Z,859.90
2022-08-20T06:12:48.442Z,859.91
2022-08-20T06:14:42.804Z,859.92
2022-08-20T06:15:42.788Z,859.92
2022-08-20T06:17:39.615Z,859.94
2022-08-20T06:18:36.126Z,860.01
2022-08-20T06:20:29.483Z,859.90
2022-08-20T06:21:29.464Z,859.88
2022-08-20T06:23:22.966Z,859.77
2022-08-20T06:24:22.805Z,859.83
2022-08-20T06:26:16.156Z,859.78
2022-08-20T06:27:16.151Z,859.81
2022-08-20T06:29:09.563Z,859.78
2022-08-20T06:30:09.480Z,859.82
2022-08-20T06:32:02.858Z,859.72
2022-08-20T06:33:02.817Z,859.75
2022-08-20T06:34:56.237Z,859.73
2022-08-20T06:35:56.155Z,859.67
2022-08-20T06:37:49.505Z,859.64
2022-08-20T06:38:49.492Z,859.66
2022-08-20T06:40:43.909Z,859.67
2022-08-20T06:41:43.830Z,859.68
2022-08-20T06:43:37.182Z,859.68
2022-08-20T06:44:37.168Z,859.70
2022-08-20T06:46:30.590Z,859.70
2022-08-20T06:47:30.510Z,859.73
2022-08-20T06:49:23.865Z,859.76
2022-08-20T06:50:23.854Z,859.75
2022-08-20T06:52:17.282Z,859.76
2022-08-20T06:53:17.193Z,859.77
2022-08-20T06:55:10.539Z,859.71
2022-08-20T06:56:10.526Z,859.75
2022-08-20T06:58:03.987Z,859.80
2022-08-20T06:59:03.867Z,859.81
2022-08-20T07:00:57.300Z,859.77
2022-08-20T07:01:57.221Z,859.80
2022-08-20T07:03:54.706Z,859.81
2022-08-20T07:04:50.563Z,859.76
2022-08-20T07:06:43.919Z,859.79
2022-08-20T07:07:43.901Z,859.81
2022-08-20T07:09:37.367Z,859.78
2022-08-20T07:10:37.242Z,859.81
2022-08-20T07:12:30.594Z,859.84
2022-08-20T07:13:30.580Z,859.85
2022-08-20T07:15:24.006Z,859.86
2022-08-20T07:16:23.921Z,859.92
2022-08-20T07:18:17.326Z,859.89
2022-08-20T07:19:17.313Z,859.89
2022-08-20T07:21:11.727Z,859.91
2022-08-20T07:22:11.650Z,859.87
2022-08-20T07:24:05.002Z,859.82
2022-08-20T07:25:04.987Z,859.78
2022-08-20T07:26:58.453Z,859.76
2022-08-20T07:27:58.335Z,859.80
2022-08-20T07:29:51.688Z,859.73
2022-08-20T07:30:56.075Z,859.68
2022-08-20T07:32:45.416Z,859.61
2022-08-20T07:33:45.008Z,859.61
2022-08-20T07:35:38.375Z,859.63
2022-08-20T07:36:38.358Z,859.60
2022-08-20T07:38:31.823Z,859.59
2022-08-20T07:39:31.696Z,859.58
2022-08-20T07:41:26.047Z,859.58
2022-08-20T07:42:26.036Z,859.58
2022-08-20T07:44:19.505Z,859.63
2022-08-20T07:45:19.372Z,859.60
2022-08-20T07:47:12.728Z,859.65
2022-08-20T07:48:12.715Z,859.63
2022-08-20T07:50:06.188Z,859.72
2022-08-20T07:51:06.056Z,859.65
2022-08-20T07:52:59.403Z,859.65
2022-08-20T07:53:59.389Z,859.72
2022-08-20T07:55:59.049Z,859.74
2022-08-20T07:56:52.737Z,859.72
2022-08-20T07:58:46.092Z,859.75
2022-08-20T07:59:46.076Z,859.71
2022-08-20T08:01:39.497Z,859.71
2022-08-20T08:02:39.416Z,859.69
2022-08-20T08:04:33.772Z,859.71
2022-08-20T08:05:33.755Z,859.70
2022-08-20T08:07:26.726Z,859.71
2022-08-20T08:08:26.615Z,859.65
2022-08-20T08:10:19.968Z,859.65
2022-08-20T08:11:19.954Z,859.71
2022-08-20T08:13:14.378Z,859.66
2022-08-20T08:14:14.298Z,859.69
2022-08-20T08:16:07.653Z,859.64
2022-08-20T08:17:07.640Z,859.59
2022-08-20T08:19:01.059Z,859.59
2022-08-20T08:20:00.976Z,859.56
2022-08-20T08:21:54.336Z,859.52
2022-08-20T08:22:54.322Z,859.50
2022-08-20T08:24:57.108Z,859.49
2022-08-20T08:25:47.660Z,859.48
2022-08-20T08:27:41.011Z,859.39
2022-08-20T08:28:40.997Z,859.40
2022-08-20T08:30:34.470Z,859.41
2022-08-20T08:31:34.337Z,859.36
2022-08-20T08:33:27.692Z,859.32
2022-08-20T08:34:27.674Z,859.31
2022-08-20T08:36:21.088Z,859.32
2022-08-20T08:37:21.012Z,859.30
2022-08-20T08:39:14.373Z,859.25
2022-08-20T08:40:14.452Z,859.25
2022-08-20T08:42:07.776Z,859.22
2022-08-20T08:43:07.698Z,859.22
2022-08-20T08:45:01.049Z,859.20
2022-08-20T08:46:01.035Z,859.21
2022-08-20T08:47:54.489Z,859.22
2022-08-20T08:48:54.374Z,859.24
2022-08-20T08:50:54.127Z,859.24
2022-08-20T08:51:47.240Z,859.26
2022-08-20T08:53:40.711Z,859.20
2022-08-20T08:54:40.575Z,859.17
2022-08-20T08:56:33.929Z,859.13
2022-08-20T08:57:33.913Z,859.15
2022-08-20T08:59:27.332Z,859.10
2022-08-20T09:00:27.256Z,859.01
2022-08-20T09:02:20.637Z,859.00
2022-08-20T09:03:20.595Z,858.97
2022-08-20T09:05:14.100Z,858.91
2022-08-20T09:06:13.940Z,858.88
2022-08-20T09:08:07.303Z,858.93
2022-08-20T09:09:07.306Z,858.94
2022-08-20T09:11:00.745Z,858.97
2022-08-20T09:12:00.619Z,858.98
2022-08-20T09:13:53.969Z,859.08
2022-08-20T09:14:53.955Z,859.09
2022-08-20T09:16:52.713Z,859.15
2022-08-20T09:17:47.301Z,859.18
2022-08-20T09:19:40.668Z,859.23
2022-08-20T09:20:40.653Z,859.22
2022-08-20T09:22:34.103Z,859.23
2022-08-20T09:23:33.991Z,859.25
2022-08-20T09:25:27.344Z,859.31
2022-08-20T09:26:29.130Z,859.31
2022-08-20T09:28:20.817Z,859.31
2022-08-20T09:29:20.678Z,859.31
2022-08-20T09:31:14.041Z,859.30
2022-08-20T09:32:14.030Z,859.25
2022-08-20T09:34:07.450Z,859.32
2022-08-20T09:35:09.485Z,859.30
2022-08-20T09:37:00.725Z,859.34
2022-08-20T09:38:00.709Z,859.31
2022-08-20T09:39:54.190Z,859.31
2022-08-20T09:40:54.048Z,859.31
2022-08-20T09:42:47.439Z,859.28
2022-08-20T09:43:47.425Z,859.29
2022-08-20T09:45:40.905Z,859.25
2022-08-20T09:46:40.768Z,859.29
2022-08-20T09:48:34.127Z,859.30
2022-08-20T09:49:34.109Z,859.28
2022-08-20T09:51:27.570Z,859.28
2022-08-20T09:52:27.447Z,859.27
2022-08-20T09:54:20.801Z,859.27
2022-08-20T09:55:20.785Z,859.27
2022-08-20T09:57:14.290Z,859.27
2022-08-20T09:58:14.130Z,859.17
2022-08-20T10:00:08.479Z,859.06
2022-08-20T10:01:13.912Z,859.01
2022-08-20T10:03:01.938Z,858.90
2022-08-20T10:04:01.803Z,858.92
2022-08-20T10:05:55.164Z,858.91
2022-08-20T10:06:55.149Z,858.94
2022-08-20T10:08:48.595Z,858.94
2022-08-20T10:09:48.486Z,858.98
2022-08-20T10:11:41.838Z,858.93
2022-08-20T10:12:41.830Z,858.92
2022-08-20T10:14:35.244Z,858.95
2022-08-20T10:15:35.165Z,858.94
2022-08-20T10:17:28.513Z,858.99
2022-08-20T10:18:28.497Z,859.03
2022-08-20T10:19:28.485Z,859.14
2022-08-20T10:20:28.475Z,859.18
2022-08-20T10:21:28.467Z,859.22
2022-08-20T10:22:28.458Z,859.22
2022-08-20T10:23:28.444Z,859.18
2022-08-20T10:24:28.433Z,859.19
2022-08-20T10:25:28.423Z,859.11
2022-08-20T10:26:28.414Z,859.03
2022-08-20T10:27:28.402Z,859.01
2022-08-20T10:28:28.392Z,858.91
2022-08-20T10:29:28.381Z,858.79
2022-08-20T10:30:28.372Z,858.62
2022-08-20T10:31:28.362Z,858.47
2022-08-20T10:32:28.349Z,858.30
2022-08-20T10:33:28.341Z,858.29
2022-08-20T10:34:28.330Z,858.27
2022-08-20T10:35:28.318Z,858.30
2022-08-20T10:36:28.308Z,858.33
2022-08-20T10:37:28.299Z,858.33
2022-08-20T10:38:28.287Z,858.43
2022-08-20T10:39:28.285Z,858.50
2022-08-20T10:40:28.269Z,858.50
2022-08-20T10:41:28.257Z,858.53
2022-08-20T10:42:28.245Z,858.57
2022-08-20T10:43:28.236Z,858.58
2022-08-20T10:44:28.226Z,858.59
2022-08-20T10:45:28.213Z,858.61
2022-08-20T10:46:28.207Z,858.61
2022-08-20T10:47:28.192Z,858.65
2022-08-20T10:48:28.186Z,858.67
2022-08-20T10:49:28.172Z,858.70
2022-08-20T10:50:30.240Z,858.74
2022-08-20T10:51:32.749Z,858.70
2022-08-20T10:52:28.141Z,858.70
2022-08-20T10:53:28.130Z,858.62
2022-08-20T10:54:28.119Z,858.56
2022-08-20T10:55:28.108Z,858.56
2022-08-20T10:56:28.099Z,858.59
2022-08-20T10:57:28.090Z,858.56
2022-08-20T10:58:37.537Z,858.60
2022-08-20T10:59:28.066Z,858.60
2022-08-20T11:00:28.057Z,858.64
2022-08-20T11:01:31.417Z,858.64
2022-08-20T11:02:28.899Z,858.65
2022-08-20T11:03:28.025Z,858.66
2022-08-20T11:04:28.015Z,858.73
2022-08-20T11:05:28.005Z,858.78
2022-08-20T11:06:27.995Z,858.88
2022-08-20T11:07:54.988Z,858.94
2022-08-20T11:08:34.191Z,858.99
2022-08-20T11:09:27.962Z,859.00
2022-08-20T11:10:27.955Z,859.02
2022-08-20T11:11:27.941Z,859.02
2022-08-20T11:12:27.931Z,859.02
2022-08-20T11:13:27.929Z,859.00
2022-08-20T11:14:27.910Z,858.97
2022-08-20T11:15:27.901Z,858.98
2022-08-20T11:16:27.888Z,859.01
2022-08-20T11:17:27.878Z,859.10
2022-08-20T11:18:27.869Z,859.22
2022-08-20T11:19:27.859Z,859.19
2022-08-20T11:20:27.847Z,859.24
2022-08-20T11:21:27.838Z,859.29
2022-08-20T11:22:27.827Z,859.40
2022-08-20T11:23:27.816Z,859.51
2022-08-20T11:24:27.807Z,859.65
2022-08-20T11:25:27.794Z,859.79
2022-08-20T11:26:27.785Z,859.87
2022-08-20T11:27:27.774Z,859.95
2022-08-20T11:28:31.404Z,859.90
2022-08-20T11:29:32.141Z,859.87
2022-08-20T11:30:27.743Z,859.96
2022-08-20T11:31:27.733Z,860.16
2022-08-20T11:32:27.722Z,860.31
2022-08-20T11:33:27.711Z,860.34
2022-08-20T11:34:27.705Z,860.49
2022-08-20T11:35:48.380Z,860.70
2022-08-20T11:36:27.679Z,860.90
2022-08-20T11:37:27.670Z,861.20
2022-08-20T11:38:27.659Z,861.34
2022-08-20T11:39:27.647Z,861.48
2022-08-20T11:40:27.692Z,861.59
2022-08-20T11:41:27.627Z,861.25
2022-08-20T11:42:27.616Z,860.69
2022-08-20T11:43:27.605Z,860.13
2022-08-20T11:44:27.597Z,860.07
2022-08-20T11:45:27.589Z,860.18
2022-08-20T11:46:28.684Z,860.44
2022-08-20T11:47:27.567Z,860.49
2022-08-20T11:48:27.553Z,860.46
2022-08-20T11:49:27.544Z,860.45
2022-08-20T11:50:27.533Z,860.38
2022-08-20T11:51:27.522Z,860.38
2022-08-20T11:52:27.511Z,860.42
2022-08-20T11:53:27.500Z,860.42
2022-08-20T11:54:27.492Z,860.40
2022-08-20T11:55:28.593Z,860.36
2022-08-20T11:56:27.469Z,860.37
2022-08-20T11:57:27.461Z,860.33
2022-08-20T11:58:27.449Z,860.35
2022-08-20T11:59:27.440Z,860.34
2022-08-20T12:00:32.087Z,860.33
2022-08-20T12:01:27.416Z,860.32
2022-08-20T12:02:27.451Z,860.31
2022-08-20T12:03:27.396Z,860.32
2022-08-20T12:04:27.385Z,860.33
2022-08-20T12:05:27.426Z,860.36
2022-08-20T12:06:27.365Z,860.37
2022-08-20T12:07:27.356Z,860.40
2022-08-20T12:08:28.245Z,860.39
2022-08-20T12:09:27.334Z,860.40
2022-08-20T12:10:27.325Z,860.42
2022-08-20T12:11:27.312Z,860.45
2022-08-20T12:12:27.304Z,860.42
2022-08-20T12:13:30.989Z,860.43
2022-08-20T12:14:27.282Z,860.46
2022-08-20T12:15:27.271Z,860.45
2022-08-20T12:16:27.261Z,860.44
2022-08-20T12:17:27.249Z,860.42
2022-08-20T12:18:27.246Z,860.39
2022-08-20T12:19:27.228Z,860.43
2022-08-20T12:20:27.218Z,860.40
2022-08-20T12:21:31.953Z,860.37
2022-08-20T12:22:27.199Z,860.35
2022-08-20T12:23:27.186Z,860.34
2022-08-20T12:24:27.175Z,860.32
2022-08-20T12:25:27.170Z,860.33
2022-08-20T12:26:27.155Z,860.33
2022-08-20T12:27:27.143Z,860.30
2022-08-20T12:28:27.134Z,860.29
2022-08-20T12:29:27.124Z,860.23
2022-08-20T12:30:27.114Z,860.26
2022-08-20T12:31:27.103Z,860.26
2022-08-20T12:32:27.094Z,860.24
2022-08-20T12:33:27.080Z,860.23
2022-08-20T12:34:27.072Z,860.22
2022-08-20T12:35:27.061Z,860.19
2022-08-20T12:36:27.051Z,860.16
2022-08-20T12:37:27.039Z,860.12
2022-08-20T12:38:27.028Z,860.11
2022-08-20T12:39:27.018Z,860.05
2022-08-20T12:40:32.268Z,860.06
2022-08-20T12:41:26.997Z,860.06
2022-08-20T12:42:26.988Z,860.05
2022-08-20T12:43:26.976Z,860.03
2022-08-20T12:44:26.967Z,860.02
2022-08-20T12:45:26.955Z,859.97
2022-08-20T12:46:26.945Z,859.95
2022-08-20T12:47:26.934Z,859.93
2022-08-20T12:48:26.924Z,859.89
2022-08-20T12:49:26.913Z,859.95
2022-08-20T12:50:31.264Z,859.93
2022-08-20T12:51:26.891Z,859.91
2022-08-20T12:52:26.882Z,859.91
2022-08-20T12:53:26.871Z,859.85
2022-08-20T12:54:26.860Z,859.82
2022-08-20T12:55:26.849Z,859.78
2022-08-20T12:56:26.841Z,859.74
2022-08-20T12:57:26.831Z,859.73
2022-08-20T12:58:26.819Z,859.66
2022-08-20T12:59:26.807Z,859.65
2022-08-20T13:00:26.809Z,859.64
2022-08-20T13:01:26.836Z,859.59
2022-08-20T13:02:26.779Z,859.57
2022-08-20T13:03:26.766Z,859.54
2022-08-20T13:04:26.757Z,859.59
2022-08-20T13:05:26.745Z,859.58
2022-08-20T13:06:26.734Z,859.56
2022-08-20T13:07:26.724Z,859.57
2022-08-20T13:08:26.715Z,859.56
2022-08-20T13:09:26.703Z,859.57
2022-08-20T13:10:26.692Z,859.57
2022-08-20T13:11:26.682Z,859.56
2022-08-20T13:12:26.673Z,859.57
2022-08-20T13:13:26.661Z,859.59
2022-08-20T13:14:26.653Z,859.57
2022-08-20T13:15:26.639Z,859.56
2022-08-20T13:16:26.630Z,859.63
2022-08-20T13:17:38.370Z,859.60
2022-08-20T13:18:26.609Z,859.61
2022-08-20T13:19:26.598Z,859.57
2022-08-20T13:20:26.588Z,859.57
2022-08-20T13:21:26.618Z,859.57
2022-08-20T13:22:26.569Z,859.55
2022-08-20T13:23:26.555Z,859.57
2022-08-20T13:24:26.545Z,859.56
2022-08-20T13:25:26.536Z,859.57
2022-08-20T13:26:26.525Z,859.60
2022-08-20T13:27:26.515Z,859.62
2022-08-20T13:28:26.505Z,859.59
2022-08-20T13:29:26.494Z,859.59
2022-08-20T13:30:26.482Z,859.58
2022-08-20T13:31:26.471Z,859.56
2022-08-20T13:32:26.461Z,859.59
2022-08-20T13:33:26.452Z,859.61
2022-08-20T13:34:26.441Z,859.62
2022-08-20T13:35:26.429Z,859.62
2022-08-20T13:36:26.420Z,859.59
2022-08-20T13:37:26.409Z,859.61
2022-08-20T13:38:26.400Z,859.66
2022-08-20T13:39:26.389Z,859.61
2022-08-20T13:40:26.377Z,859.58
2022-08-20T13:41:26.368Z,859.55
2022-08-20T13:42:26.359Z,859.52
2022-08-20T13:43:26.346Z,859.51
2022-08-20T13:44:31.347Z,859.53
2022-08-20T13:45:26.325Z,859.53
2022-08-20T13:46:26.316Z,859.51
2022-08-20T13:47:26.302Z,859.55
2022-08-20T13:48:26.294Z,859.55
2022-08-20T13:49:26.282Z,859.52
2022-08-20T13:50:26.273Z,859.54
2022-08-20T13:51:27.712Z,859.52
2022-08-20T13:52:26.251Z,859.54
2022-08-20T13:53:26.247Z,859.54
2022-08-20T13:54:30.254Z,859.49
2022-08-20T13:55:26.224Z,859.51
2022-08-20T13:56:26.213Z,859.50
2022-08-20T13:57:26.200Z,859.50
2022-08-20T13:58:26.191Z,859.44
2022-08-20T13:59:26.180Z,859.41
2022-08-20T14:00:28.102Z,859.41
2022-08-20T14:01:26.289Z,859.40
2022-08-20T14:02:26.151Z,859.40
2022-08-20T14:03:26.136Z,859.41
2022-08-20T14:04:26.128Z,859.47
2022-08-20T14:05:26.115Z,859.57
2022-08-20T14:06:26.105Z,859.68
2022-08-20T14:07:31.484Z,859.78
2022-08-20T14:08:26.083Z,859.99
2022-08-20T14:09:26.072Z,860.16
2022-08-20T14:10:26.066Z,860.48
2022-08-20T14:11:26.069Z,860.73
2022-08-20T14:12:26.041Z,860.98
2022-08-20T14:13:26.032Z,861.19
2022-08-20T14:14:26.022Z,861.32
2022-08-20T14:15:26.009Z,861.30
2022-08-20T14:16:27.400Z,861.31
2022-08-20T14:17:25.991Z,861.32
2022-08-20T14:18:25.982Z,861.42
2022-08-20T14:19:25.971Z,861.45
2022-08-20T14:20:25.957Z,861.55
2022-08-20T14:21:25.947Z,861.64
2022-08-20T14:22:25.937Z,861.69
2022-08-20T14:23:25.925Z,861.74
2022-08-20T14:24:25.915Z,861.75
2022-08-20T14:25:25.904Z,861.66
2022-08-20T14:26:25.894Z,861.51
2022-08-20T14:27:30.675Z,861.09
2022-08-20T14:28:25.873Z,860.39
2022-08-20T14:29:25.866Z,859.66
2022-08-20T14:30:25.852Z,859.42
2022-08-20T14:31:25.841Z,859.38
2022-08-20T14:32:25.831Z,859.39
2022-08-20T14:33:25.823Z,859.48
2022-08-20T14:34:25.810Z,859.57
2022-08-20T14:35:25.799Z,859.67
2022-08-20T14:36:25.790Z,859.75
2022-08-20T14:37:25.780Z,859.86
2022-08-20T14:38:25.769Z,859.88
2022-08-20T14:39:25.757Z,859.96
2022-08-20T14:40:25.746Z,860.04
2022-08-20T14:41:25.738Z,860.16
2022-08-20T14:42:25.726Z,860.23
2022-08-20T14:43:25.714Z,860.25
2022-08-20T14:44:25.706Z,860.31
2022-08-20T14:45:25.695Z,860.32
2022-08-20T14:46:25.685Z,860.34
2022-08-20T14:47:25.677Z,860.39
2022-08-20T14:48:25.662Z,860.35
2022-08-20T14:49:25.653Z,860.40
2022-08-20T14:50:25.641Z,860.42
2022-08-20T14:51:25.633Z,860.48
2022-08-20T14:52:28.102Z,860.45
2022-08-20T14:53:25.611Z,860.54
2022-08-20T14:54:25.600Z,860.49
2022-08-20T14:55:25.591Z,860.55
2022-08-20T14:56:25.579Z,860.54
2022-08-20T14:57:25.568Z,860.57
2022-08-20T14:58:25.558Z,860.57
2022-08-20T14:59:25.547Z,860.54
2022-08-20T15:00:25.536Z,860.56
2022-08-20T15:01:25.552Z,860.51
2022-08-20T15:02:25.517Z,860.52
2022-08-20T15:03:25.509Z,860.50
2022-08-20T15:04:25.629Z,860.53
2022-08-20T15:05:25.483Z,860.54
2022-08-20T15:06:25.474Z,860.55
2022-08-20T15:07:25.467Z,860.58
2022-08-20T15:08:28.809Z,860.60
2022-08-20T15:09:25.443Z,860.59
2022-08-20T15:10:25.431Z,860.59
2022-08-20T15:11:25.419Z,860.64
2022-08-20T15:12:25.411Z,860.63
2022-08-20T15:13:25.400Z,860.68
2022-08-20T15:14:25.388Z,860.72
2022-08-20T15:15:25.387Z,860.74
2022-08-20T15:16:25.371Z,860.74
2022-08-20T15:17:25.358Z,860.77
2022-08-20T15:18:25.347Z,860.78
2022-08-20T15:19:25.336Z,860.78
2022-08-20T15:20:25.341Z,860.77
2022-08-20T15:21:25.313Z,860.81
2022-08-20T15:22:25.305Z,860.82
2022-08-20T15:23:25.294Z,860.82
2022-08-20T15:24:25.307Z,860.83
2022-08-20T15:25:25.272Z,860.82
2022-08-20T15:26:25.265Z,860.82
2022-08-20T15:27:25.251Z,860.78
2022-08-20T15:28:25.244Z,860.79
2022-08-20T15:29:25.231Z,860.78
2022-08-20T15:30:25.221Z,860.77
2022-08-20T15:31:25.208Z,860.76
2022-08-20T15:32:25.201Z,860.75
2022-08-20T15:33:25.192Z,860.74
2022-08-20T15:34:25.179Z,860.79
2022-08-20T15:35:25.167Z,860.77
2022-08-20T15:36:25.156Z,860.79
2022-08-20T15:37:25.147Z,860.77
2022-08-20T15:38:25.137Z,860.79
2022-08-20T15:39:25.124Z,860.77